sensor_id;sensor_type;location;lat;lon;timestamp;P1;durP1;ratioP1;P2;durP2;ratioP2
35667;SDS011;22158;59.280;17.806;2022-08-21T00:02:13;4.78;;;1.77;;
35667;SDS011;22158;59.280;17.806;2022-08-21T00:04:40;3.95;;;1.85;;
35667;SDS011;22158;59.280;17.806;2022-08-21T00:07:06;4.95;;;1.60;;
35667;SDS011;22158;59.280;17.806;2022-08-21T00:09:31;7.00;;;1.73;;
35667;SDS011;22158;59.280;17.806;2022-08-21T00:11:57;4.65;;;1.50;;
35667;SDS011;22158;59.280;17.806;2022-08-21T00:14:23;6.53;;;2.20;;
35667;SDS011;22158;59.280;17.806;2022-08-21T00:16:48;3.45;;;1.88;;
35667;SDS011;22158;59.280;17.806;2022-08-21T00:19:15;5.85;;;1.52;;
35667;SDS011;22158;59.280;17.806;2022-08-21T00:21:40;7.55;;;2.25;;
35667;SDS011;22158;59.280;17.806;2022-08-21T00:24:06;7.05;;;1.75;;
35667;SDS011;22158;59.280;17.806;2022-08-21T00:26:32;5.32;;;1.95;;
35667;SDS011;22158;59.280;17.806;2022-08-21T00:28:58;4.75;;;2.13;;
35667;SDS011;22158;59.280;17.806;2022-08-21T00:31:23;3.95;;;1.70;;
35667;SDS011;22158;59.280;17.806;2022-08-21T00:33:49;9.23;;;1.92;;
35667;SDS011;22158;59.280;17.806;2022-08-21T00:36:15;5.40;;;1.70;;
35667;SDS011;22158;59.280;17.806;2022-08-21T00:38:41;6.10;;;2.65;;
35667;SDS011;22158;59.280;17.806;2022-08-21T00:41:07;6.82;;;1.65;;
35667;SDS011;22158;59.280;17.806;2022-08-21T00:43:35;4.60;;;1.50;;
35667;SDS011;22158;59.280;17.806;2022-08-21T00:46:03;10.57;;;2.47;;
35667;SDS011;22158;59.280;17.806;2022-08-21T00:48:30;7.28;;;2.13;;
35667;SDS011;22158;59.280;17.806;2022-08-21T00:51:09;4.03;;;2.15;;
35667;SDS011;22158;59.280;17.806;2022-08-21T00:53:39;3.65;;;1.65;;
35667;SDS011;22158;59.280;17.806;2022-08-21T00:56:09;9.02;;;1.92;;
35667;SDS011;22158;59.280;17.806;2022-08-21T00:58:37;7.20;;;1.73;;
35667;SDS011;22158;59.280;17.806;2022-08-21T01:01:05;6.30;;;1.92;;
35667;SDS011;22158;59.280;17.806;2022-08-21T01:03:32;8.63;;;1.88;;
35667;SDS011;22158;59.280;17.806;2022-08-21T01:06:00;6.45;;;1.95;;
35667;SDS011;22158;59.280;17.806;2022-08-21T01:08:27;6.82;;;1.75;;
35667;SDS011;22158;59.280;17.806;2022-08-21T01:10:54;5.78;;;1.73;;
35667;SDS011;22158;59.280;17.806;2022-08-21T01:13:20;7.20;;;1.70;;
35667;SDS011;22158;59.280;17.806;2022-08-21T01:15:48;9.27;;;2.08;;
35667;SDS011;22158;59.280;17.806;2022-08-21T01:18:17;5.28;;;2.15;;
35667;SDS011;22158;59.280;17.806;2022-08-21T01:21:28;5.85;;;1.95;;
35667;SDS011;22158;59.280;17.806;2022-08-21T01:23:37;9.48;;;1.80;;
35667;SDS011;22158;59.280;17.806;2022-08-21T01:26:06;4.65;;;2.30;;
35667;SDS011;22158;59.280;17.806;2022-08-21T01:28:33;9.15;;;2.15;;
35667;SDS011;22158;59.280;17.806;2022-08-21T01:33:30;6.47;;;1.90;;
35667;SDS011;22158;59.280;17.806;2022-08-21T01:35:56;8.68;;;2.33;;
35667;SDS011;22158;59.280;17.806;2022-08-21T01:38:22;5.80;;;1.83;;
35667;SDS011;22158;59.280;17.806;2022-08-21T01:40:48;8.40;;;1.80;;
35667;SDS011;22158;59.280;17.806;2022-08-21T01:43:14;7.78;;;2.20;;
35667;SDS011;22158;59.280;17.806;2022-08-21T01:45:39;4.00;;;1.90;;
35667;SDS011;22158;59.280;17.806;2022-08-21T01:48:05;3.00;;;2.05;;
35667;SDS011;22158;59.280;17.806;2022-08-21T01:50:31;3.60;;;2.45;;
35667;SDS011;22158;59.280;17.806;2022-08-21T01:52:57;5.28;;;1.85;;
35667;SDS011;22158;59.280;17.806;2022-08-21T01:55:23;6.50;;;2.22;;
35667;SDS011;22158;59.280;17.806;2022-08-21T01:57:49;5.57;;;2.05;;
35667;SDS011;22158;59.280;17.806;2022-08-21T02:00:16;5.18;;;2.10;;
35667;SDS011;22158;59.280;17.806;2022-08-21T02:02:44;2.72;;;1.92;;
35667;SDS011;22158;59.280;17.806;2022-08-21T02:05:10;6.53;;;2.30;;
35667;SDS011;22158;59.280;17.806;2022-08-21T02:07:38;6.45;;;2.72;;
35667;SDS011;22158;59.280;17.806;2022-08-21T02:10:07;10.30;;;2.47;;
35667;SDS011;22158;59.280;17.806;2022-08-21T02:12:34;3.15;;;1.65;;
35667;SDS011;22158;59.280;17.806;2022-08-21T02:15:00;6.53;;;1.80;;
35667;SDS011;22158;59.280;17.806;2022-08-21T02:17:25;8.38;;;2.55;;
35667;SDS011;22158;59.280;17.806;2022-08-21T02:19:51;8.70;;;2.00;;
35667;SDS011;22158;59.280;17.806;2022-08-21T02:22:17;11.90;;;2.15;;
35667;SDS011;22158;59.280;17.806;2022-08-21T02:24:43;6.30;;;2.17;;
35667;SDS011;22158;59.280;17.806;2022-08-21T02:27:09;6.20;;;2.45;;
35667;SDS011;22158;59.280;17.806;2022-08-21T02:29:34;10.00;;;2.20;;
35667;SDS011;22158;59.280;17.806;2022-08-21T02:32:00;5.90;;;2.13;;
35667;SDS011;22158;59.280;17.806;2022-08-21T02:34:26;6.25;;;2.13;;
35667;SDS011;22158;59.280;17.806;2022-08-21T02:36:52;4.75;;;1.90;;
35667;SDS011;22158;59.280;17.806;2022-08-21T02:39:17;6.82;;;2.47;;
35667;SDS011;22158;59.280;17.806;2022-08-21T02:41:43;6.50;;;2.28;;
35667;SDS011;22158;59.280;17.806;2022-08-21T02:44:09;8.18;;;2.15;;
35667;SDS011;22158;59.280;17.806;2022-08-21T02:46:34;3.47;;;2.13;;
35667;SDS011;22158;59.280;17.806;2022-08-21T02:49:00;6.20;;;2.20;;
35667;SDS011;22158;59.280;17.806;2022-08-21T02:51:25;4.47;;;2.17;;
35667;SDS011;22158;59.280;17.806;2022-08-21T02:53:51;8.73;;;2.80;;
35667;SDS011;22158;59.280;17.806;2022-08-21T02:56:18;6.22;;;2.67;;
35667;SDS011;22158;59.280;17.806;2022-08-21T02:58:48;9.07;;;2.38;;
35667;SDS011;22158;59.280;17.806;2022-08-21T03:01:16;9.95;;;2.90;;
35667;SDS011;22158;59.280;17.806;2022-08-21T03:03:43;3.50;;;2.58;;
35667;SDS011;22158;59.280;17.806;2022-08-21T03:06:10;7.82;;;2.92;;
35667;SDS011;22158;59.280;17.806;2022-08-21T03:08:37;7.97;;;2.50;;
35667;SDS011;22158;59.280;17.806;2022-08-21T03:11:04;6.60;;;2.20;;
35667;SDS011;22158;59.280;17.806;2022-08-21T03:13:30;4.60;;;2.15;;
35667;SDS011;22158;59.280;17.806;2022-08-21T03:15:57;7.60;;;2.33;;
35667;SDS011;22158;59.280;17.806;2022-08-21T03:18:23;8.48;;;2.33;;
35667;SDS011;22158;59.280;17.806;2022-08-21T03:20:48;4.55;;;2.35;;
35667;SDS011;22158;59.280;17.806;2022-08-21T03:23:15;7.30;;;2.13;;
35667;SDS011;22158;59.280;17.806;2022-08-21T03:25:42;7.95;;;2.63;;
35667;SDS011;22158;59.280;17.806;2022-08-21T03:28:10;8.50;;;2.17;;
35667;SDS011;22158;59.280;17.806;2022-08-21T03:30:39;8.70;;;2.70;;
35667;SDS011;22158;59.280;17.806;2022-08-21T03:33:06;6.82;;;2.38;;
35667;SDS011;22158;59.280;17.806;2022-08-21T03:35:31;9.40;;;2.50;;
35667;SDS011;22158;59.280;17.806;2022-08-21T03:37:57;6.75;;;2.20;;
35667;SDS011;22158;59.280;17.806;2022-08-21T03:40:23;7.53;;;2.42;;
35667;SDS011;22158;59.280;17.806;2022-08-21T03:42:49;5.20;;;2.38;;
35667;SDS011;22158;59.280;17.806;2022-08-21T03:45:15;10.20;;;3.03;;
35667;SDS011;22158;59.280;17.806;2022-08-21T03:47:52;5.75;;;2.03;;
35667;SDS011;22158;59.280;17.806;2022-08-21T03:50:28;6.95;;;2.45;;
35667;SDS011;22158;59.280;17.806;2022-08-21T03:52:55;3.58;;;2.28;;
35667;SDS011;22158;59.280;17.806;2022-08-21T03:55:22;10.38;;;2.47;;
35667;SDS011;22158;59.280;17.806;2022-08-21T03:57:48;9.45;;;2.25;;
35667;SDS011;22158;59.280;17.806;2022-08-21T04:00:14;7.68;;;2.20;;
35667;SDS011;22158;59.280;17.806;2022-08-21T04:02:41;5.55;;;2.20;;
35667;SDS011;22158;59.280;17.806;2022-08-21T04:05:09;7.70;;;2.33;;
35667;SDS011;22158;59.280;17.806;2022-08-21T04:07:36;7.95;;;2.00;;
35667;SDS011;22158;59.280;17.806;2022-08-21T04:10:02;7.25;;;2.00;;
35667;SDS011;22158;59.280;17.806;2022-08-21T04:12:30;7.40;;;2.30;;
35667;SDS011;22158;59.280;17.806;2022-08-21T04:14:56;11.50;;;2.30;;
35667;SDS011;22158;59.280;17.806;2022-08-21T04:17:22;8.05;;;2.10;;
35667;SDS011;22158;59.280;17.806;2022-08-21T04:19:48;10.07;;;3.25;;
35667;SDS011;22158;59.280;17.806;2022-08-21T04:22:14;6.95;;;3.05;;
35667;SDS011;22158;59.280;17.806;2022-08-21T04:24:41;5.07;;;2.95;;
35667;SDS011;22158;59.280;17.806;2022-08-21T04:27:06;6.63;;;2.40;;
35667;SDS011;22158;59.280;17.806;2022-08-21T04:29:32;11.15;;;2.72;;
35667;SDS011;22158;59.280;17.806;2022-08-21T04:31:58;9.68;;;2.45;;
35667;SDS011;22158;59.280;17.806;2022-08-21T04:34:23;4.50;;;2.30;;
35667;SDS011;22158;59.280;17.806;2022-08-21T04:36:49;10.05;;;2.55;;
35667;SDS011;22158;59.280;17.806;2022-08-21T04:39:15;5.28;;;2.30;;
35667;SDS011;22158;59.280;17.806;2022-08-21T04:41:40;8.40;;;2.67;;
35667;SDS011;22158;59.280;17.806;2022-08-21T04:44:06;6.32;;;2.47;;
35667;SDS011;22158;59.280;17.806;2022-08-21T04:46:33;4.97;;;2.30;;
35667;SDS011;22158;59.280;17.806;2022-08-21T04:48:59;9.68;;;2.75;;
35667;SDS011;22158;59.280;17.806;2022-08-21T04:51:29;12.90;;;3.45;;
35667;SDS011;22158;59.280;17.806;2022-08-21T04:54:02;9.60;;;3.08;;
35667;SDS011;22158;59.280;17.806;2022-08-21T04:56:39;10.57;;;3.10;;
35667;SDS011;22158;59.280;17.806;2022-08-21T04:59:11;6.88;;;2.63;;
35667;SDS011;22158;59.280;17.806;2022-08-21T05:01:42;8.05;;;2.95;;
35667;SDS011;22158;59.280;17.806;2022-08-21T05:04:10;9.68;;;2.85;;
35667;SDS011;22158;59.280;17.806;2022-08-21T05:06:39;5.72;;;2.58;;
35667;SDS011;22158;59.280;17.806;2022-08-21T05:09:08;5.72;;;3.10;;
35667;SDS011;22158;59.280;17.806;2022-08-21T05:11:37;3.50;;;2.08;;
35667;SDS011;22158;59.280;17.806;2022-08-21T05:14:02;10.25;;;2.70;;
35667;SDS011;22158;59.280;17.806;2022-08-21T05:16:28;15.05;;;3.95;;
35667;SDS011;22158;59.280;17.806;2022-08-21T05:18:54;10.95;;;3.20;;
35667;SDS011;22158;59.280;17.806;2022-08-21T05:21:20;8.23;;;2.45;;
35667;SDS011;22158;59.280;17.806;2022-08-21T05:23:46;9.75;;;2.85;;
35667;SDS011;22158;59.280;17.806;2022-08-21T05:26:12;7.15;;;3.05;;
35667;SDS011;22158;59.280;17.806;2022-08-21T05:28:37;14.20;;;4.68;;
35667;SDS011;22158;59.280;17.806;2022-08-21T05:31:03;3.72;;;2.03;;
35667;SDS011;22158;59.280;17.806;2022-08-21T05:33:29;10.32;;;2.58;;
35667;SDS011;22158;59.280;17.806;2022-08-21T05:35:55;10.32;;;3.63;;
35667;SDS011;22158;59.280;17.806;2022-08-21T05:38:21;6.05;;;2.63;;
35667;SDS011;22158;59.280;17.806;2022-08-21T05:40:48;6.10;;;2.05;;
35667;SDS011;22158;59.280;17.806;2022-08-21T05:43:13;4.82;;;2.30;;
35667;SDS011;22158;59.280;17.806;2022-08-21T05:45:40;15.82;;;4.00;;
35667;SDS011;22158;59.280;17.806;2022-08-21T05:48:11;8.77;;;3.15;;
35667;SDS011;22158;59.280;17.806;2022-08-21T05:50:45;14.13;;;2.78;;
35667;SDS011;22158;59.280;17.806;2022-08-21T05:53:12;8.88;;;2.60;;
35667;SDS011;22158;59.280;17.806;2022-08-21T05:55:39;11.88;;;3.17;;
35667;SDS011;22158;59.280;17.806;2022-08-21T05:58:06;8.32;;;2.60;;
35667;SDS011;22158;59.280;17.806;2022-08-21T06:00:32;15.75;;;3.72;;
35667;SDS011;22158;59.280;17.806;2022-08-21T06:02:58;7.50;;;2.40;;
35667;SDS011;22158;59.280;17.806;2022-08-21T06:05:24;15.93;;;2.97;;
35667;SDS011;22158;59.280;17.806;2022-08-21T06:07:49;8.32;;;3.35;;
35667;SDS011;22158;59.280;17.806;2022-08-21T06:10:16;12.52;;;2.55;;
35667;SDS011;22158;59.280;17.806;2022-08-21T06:12:41;9.20;;;3.13;;
35667;SDS011;22158;59.280;17.806;2022-08-21T06:15:07;10.00;;;3.20;;
35667;SDS011;22158;59.280;17.806;2022-08-21T06:17:33;10.90;;;3.15;;
35667;SDS011;22158;59.280;17.806;2022-08-21T06:19:59;12.18;;;2.60;;
35667;SDS011;22158;59.280;17.806;2022-08-21T06:22:24;8.70;;;2.95;;
35667;SDS011;22158;59.280;17.806;2022-08-21T06:24:50;12.02;;;3.30;;
35667;SDS011;22158;59.280;17.806;2022-08-21T06:27:16;11.65;;;2.35;;
35667;SDS011;22158;59.280;17.806;2022-08-21T06:29:42;13.13;;;3.13;;
35667;SDS011;22158;59.280;17.806;2022-08-21T06:32:11;26.90;;;3.85;;
35667;SDS011;22158;59.280;17.806;2022-08-21T06:34:38;8.63;;;3.60;;
35667;SDS011;22158;59.280;17.806;2022-08-21T06:37:05;7.75;;;2.78;;
35667;SDS011;22158;59.280;17.806;2022-08-21T06:39:31;7.78;;;2.60;;
35667;SDS011;22158;59.280;17.806;2022-08-21T06:41:57;8.00;;;2.70;;
35667;SDS011;22158;59.280;17.806;2022-08-21T06:44:23;8.45;;;2.25;;
35667;SDS011;22158;59.280;17.806;2022-08-21T06:46:49;8.95;;;2.58;;
35667;SDS011;22158;59.280;17.806;2022-08-21T06:49:15;13.32;;;3.75;;
35667;SDS011;22158;59.280;17.806;2022-08-21T06:51:40;16.67;;;3.45;;
35667;SDS011;22158;59.280;17.806;2022-08-21T06:54:07;8.30;;;2.78;;
35667;SDS011;22158;59.280;17.806;2022-08-21T06:56:33;13.35;;;2.30;;
35667;SDS011;22158;59.280;17.806;2022-08-21T06:59:02;7.40;;;2.90;;
35667;SDS011;22158;59.280;17.806;2022-08-21T07:01:28;12.60;;;3.10;;
35667;SDS011;22158;59.280;17.806;2022-08-21T07:03:53;10.88;;;2.63;;
35667;SDS011;22158;59.280;17.806;2022-08-21T07:06:19;13.48;;;3.30;;
35667;SDS011;22158;59.280;17.806;2022-08-21T07:08:45;9.10;;;2.60;;
35667;SDS011;22158;59.280;17.806;2022-08-21T07:11:12;6.68;;;2.53;;
35667;SDS011;22158;59.280;17.806;2022-08-21T07:13:41;7.75;;;2.25;;
35667;SDS011;22158;59.280;17.806;2022-08-21T07:16:07;10.20;;;2.78;;
35667;SDS011;22158;59.280;17.806;2022-08-21T07:18:33;4.68;;;2.33;;
35667;SDS011;22158;59.280;17.806;2022-08-21T07:21:00;4.50;;;2.38;;
35667;SDS011;22158;59.280;17.806;2022-08-21T07:23:29;8.45;;;2.40;;
35667;SDS011;22158;59.280;17.806;2022-08-21T07:25:57;10.20;;;2.95;;
35667;SDS011;22158;59.280;17.806;2022-08-21T07:28:24;6.00;;;2.25;;
35667;SDS011;22158;59.280;17.806;2022-08-21T07:30:50;8.05;;;2.58;;
35667;SDS011;22158;59.280;17.806;2022-08-21T07:33:18;9.00;;;3.10;;
35667;SDS011;22158;59.280;17.806;2022-08-21T07:35:44;15.50;;;3.50;;
35667;SDS011;22158;59.280;17.806;2022-08-21T07:38:09;8.80;;;2.85;;
35667;SDS011;22158;59.280;17.806;2022-08-21T07:40:35;11.40;;;2.80;;
35667;SDS011;22158;59.280;17.806;2022-08-21T07:43:01;9.98;;;2.47;;
35667;SDS011;22158;59.280;17.806;2022-08-21T07:45:27;12.10;;;2.92;;
35667;SDS011;22158;59.280;17.806;2022-08-21T07:47:52;17.00;;;3.75;;
35667;SDS011;22158;59.280;17.806;2022-08-21T07:50:18;11.00;;;2.88;;
35667;SDS011;22158;59.280;17.806;2022-08-21T07:52:44;6.75;;;2.13;;
35667;SDS011;22158;59.280;17.806;2022-08-21T07:55:12;9.90;;;2.35;;
35667;SDS011;22158;59.280;17.806;2022-08-21T07:57:39;4.35;;;2.10;;
35667;SDS011;22158;59.280;17.806;2022-08-21T08:00:09;7.68;;;2.50;;
35667;SDS011;22158;59.280;17.806;2022-08-21T08:02:37;11.10;;;2.95;;
35667;SDS011;22158;59.280;17.806;2022-08-21T08:05:04;8.48;;;2.85;;
35667;SDS011;22158;59.280;17.806;2022-08-21T08:07:32;4.15;;;2.20;;
35667;SDS011;22158;59.280;17.806;2022-08-21T08:09:59;6.68;;;2.33;;
35667;SDS011;22158;59.280;17.806;2022-08-21T08:12:25;9.93;;;2.53;;
35667;SDS011;22158;59.280;17.806;2022-08-21T08:15:00;6.13;;;2.17;;
35667;SDS011;22158;59.280;17.806;2022-08-21T08:17:26;10.50;;;2.67;;
35667;SDS011;22158;59.280;17.806;2022-08-21T08:19:53;9.60;;;3.25;;
35667;SDS011;22158;59.280;17.806;2022-08-21T08:22:20;8.35;;;2.55;;
35667;SDS011;22158;59.280;17.806;2022-08-21T08:24:49;10.05;;;2.85;;
35667;SDS011;22158;59.280;17.806;2022-08-21T08:27:15;10.20;;;3.20;;
35667;SDS011;22158;59.280;17.806;2022-08-21T08:29:44;12.45;;;2.67;;
35667;SDS011;22158;59.280;17.806;2022-08-21T08:32:10;10.32;;;2.60;;
35667;SDS011;22158;59.280;17.806;2022-08-21T08:34:36;9.20;;;2.35;;
35667;SDS011;22158;59.280;17.806;2022-08-21T08:37:03;9.48;;;2.67;;
35667;SDS011;22158;59.280;17.806;2022-08-21T08:39:30;7.95;;;2.22;;
35667;SDS011;22158;59.280;17.806;2022-08-21T08:42:05;11.90;;;2.83;;
35667;SDS011;22158;59.280;17.806;2022-08-21T08:44:35;6.38;;;2.58;;
35667;SDS011;22158;59.280;17.806;2022-08-21T08:47:01;7.75;;;2.45;;
35667;SDS011;22158;59.280;17.806;2022-08-21T08:57:45;5.90;;;2.47;;
35667;SDS011;22158;59.280;17.806;2022-08-21T09:00:14;10.82;;;2.85;;
35667;SDS011;22158;59.280;17.806;2022-08-21T09:02:42;7.45;;;2.40;;
35667;SDS011;22158;59.280;17.806;2022-08-21T09:13:54;8.30;;;2.72;;
35667;SDS011;22158;59.280;17.806;2022-08-21T09:19:27;8.00;;;1.95;;
35667;SDS011;22158;59.280;17.806;2022-08-21T09:24:50;10.32;;;1.95;;
35667;SDS011;22158;59.280;17.806;2022-08-21T09:27:38;4.95;;;1.70;;
35667;SDS011;22158;59.280;17.806;2022-08-21T09:30:05;6.72;;;2.08;;
35667;SDS011;22158;59.280;17.806;2022-08-21T09:32:32;4.32;;;1.90;;
35667;SDS011;22158;59.280;17.806;2022-08-21T09:35:03;7.60;;;2.95;;
35667;SDS011;22158;59.280;17.806;2022-08-21T09:37:54;9.15;;;2.35;;
35667;SDS011;22158;59.280;17.806;2022-08-21T09:43:06;8.32;;;2.53;;
35667;SDS011;22158;59.280;17.806;2022-08-21T09:46:00;7.95;;;2.15;;
35667;SDS011;22158;59.280;17.806;2022-08-21T09:48:28;6.38;;;2.25;;
35667;SDS011;22158;59.280;17.806;2022-08-21T09:51:04;11.85;;;2.75;;
35667;SDS011;22158;59.280;17.806;2022-08-21T09:53:32;4.57;;;1.52;;
35667;SDS011;22158;59.280;17.806;2022-08-21T09:56:01;13.25;;;2.00;;
35667;SDS011;22158;59.280;17.806;2022-08-21T09:58:48;4.75;;;2.30;;
35667;SDS011;22158;59.280;17.806;2022-08-21T10:01:17;8.85;;;2.53;;
35667;SDS011;22158;59.280;17.806;2022-08-21T10:03:45;8.18;;;2.13;;
35667;SDS011;22158;59.280;17.806;2022-08-21T10:06:20;5.80;;;2.50;;
35667;SDS011;22158;59.280;17.806;2022-08-21T10:09:02;4.45;;;2.08;;
35667;SDS011;22158;59.280;17.806;2022-08-21T10:11:28;6.50;;;2.42;;
35667;SDS011;22158;59.280;17.806;2022-08-21T10:22:31;7.00;;;2.38;;
35667;SDS011;22158;59.280;17.806;2022-08-21T10:25:11;9.93;;;2.30;;
35667;SDS011;22158;59.280;17.806;2022-08-21T10:27:59;8.75;;;2.03;;
35667;SDS011;22158;59.280;17.806;2022-08-21T10:33:25;5.60;;;2.10;;
35667;SDS011;22158;59.280;17.806;2022-08-21T10:38:47;11.25;;;2.25;;
35667;SDS011;22158;59.280;17.806;2022-08-21T10:47:02;7.43;;;2.05;;
35667;SDS011;22158;59.280;17.806;2022-08-21T10:55:32;5.20;;;1.80;;
35667;SDS011;22158;59.280;17.806;2022-08-21T10:58:28;7.82;;;2.20;;
35667;SDS011;22158;59.280;17.806;2022-08-21T11:01:26;10.07;;;3.53;;
35667;SDS011;22158;59.280;17.806;2022-08-21T11:04:05;7.25;;;2.30;;
35667;SDS011;22158;59.280;17.806;2022-08-21T11:06:34;8.00;;;2.05;;
35667;SDS011;22158;59.280;17.806;2022-08-21T11:09:16;10.40;;;2.42;;
35667;SDS011;22158;59.280;17.806;2022-08-21T11:11:46;10.07;;;2.50;;
35667;SDS011;22158;59.280;17.806;2022-08-21T11:14:24;6.63;;;2.50;;
35667;SDS011;22158;59.280;17.806;2022-08-21T11:17:13;12.35;;;2.65;;
35667;SDS011;22158;59.280;17.806;2022-08-21T11:19:43;7.53;;;2.60;;
35667;SDS011;22158;59.280;17.806;2022-08-21T11:25:02;9.75;;;2.35;;
35667;SDS011;22158;59.280;17.806;2022-08-21T11:27:41;10.25;;;3.00;;
35667;SDS011;22158;59.280;17.806;2022-08-21T11:30:15;7.90;;;2.55;;
35667;SDS011;22158;59.280;17.806;2022-08-21T11:41:33;5.30;;;1.73;;
35667;SDS011;22158;59.280;17.806;2022-08-21T11:54:44;4.43;;;1.27;;
35667;SDS011;22158;59.280;17.806;2022-08-21T11:57:20;8.68;;;1.42;;
35667;SDS011;22158;59.280;17.806;2022-08-21T12:02:46;5.20;;;1.30;;
35667;SDS011;22158;59.280;17.806;2022-08-21T12:10:58;2.95;;;1.08;;
35667;SDS011;22158;59.280;17.806;2022-08-21T12:13:31;2.83;;;1.58;;
35667;SDS011;22158;59.280;17.806;2022-08-21T12:16:34;4.03;;;1.30;;
35667;SDS011;22158;59.280;17.806;2022-08-21T12:19:08;4.68;;;1.10;;
35667;SDS011;22158;59.280;17.806;2022-08-21T12:21:58;2.00;;;1.02;;
35667;SDS011;22158;59.280;17.806;2022-08-21T12:24:48;3.92;;;1.38;;
35667;SDS011;22158;59.280;17.806;2022-08-21T12:29:48;4.38;;;1.20;;
35667;SDS011;22158;59.280;17.806;2022-08-21T12:34:50;7.78;;;1.63;;
35667;SDS011;22158;59.280;17.806;2022-08-21T12:40:10;2.60;;;1.67;;
35667;SDS011;22158;59.280;17.806;2022-08-21T12:42:48;4.75;;;1.30;;
35667;SDS011;22158;59.280;17.806;2022-08-21T12:45:21;2.97;;;0.85;;
35667;SDS011;22158;59.280;17.806;2022-08-21T12:48:12;2.00;;;1.05;;
35667;SDS011;22158;59.280;17.806;2022-08-21T12:50:50;3.88;;;1.17;;
35667;SDS011;22158;59.280;17.806;2022-08-21T12:53:30;2.95;;;1.63;;
35667;SDS011;22158;59.280;17.806;2022-08-21T12:56:03;5.43;;;1.02;;
35667;SDS011;22158;59.280;17.806;2022-08-21T12:58:34;3.90;;;1.10;;
35667;SDS011;22158;59.280;17.806;2022-08-21T13:01:07;2.08;;;1.17;;
35667;SDS011;22158;59.280;17.806;2022-08-21T13:03:40;4.55;;;1.80;;
35667;SDS011;22158;59.280;17.806;2022-08-21T13:06:07;1.55;;;0.93;;
35667;SDS011;22158;59.280;17.806;2022-08-21T13:08:37;4.53;;;1.33;;
35667;SDS011;22158;59.280;17.806;2022-08-21T13:11:04;3.50;;;1.05;;
35667;SDS011;22158;59.280;17.806;2022-08-21T13:13:31;4.20;;;1.35;;
35667;SDS011;22158;59.280;17.806;2022-08-21T13:15:58;2.00;;;0.88;;
35667;SDS011;22158;59.280;17.806;2022-08-21T13:18:29;5.43;;;1.98;;
35667;SDS011;22158;59.280;17.806;2022-08-21T13:21:03;1.60;;;1.10;;
35667;SDS011;22158;59.280;17.806;2022-08-21T13:23:30;4.85;;;0.95;;
35667;SDS011;22158;59.280;17.806;2022-08-21T13:25:56;4.43;;;1.15;;
35667;SDS011;22158;59.280;17.806;2022-08-21T13:28:22;4.60;;;1.38;;
35667;SDS011;22158;59.280;17.806;2022-08-21T13:33:18;6.40;;;1.45;;
35667;SDS011;22158;59.280;17.806;2022-08-21T13:38:21;4.80;;;1.52;;
35667;SDS011;22158;59.280;17.806;2022-08-21T13:40:51;4.00;;;1.13;;
35667;SDS011;22158;59.280;17.806;2022-08-21T13:43:31;4.28;;;1.38;;
35667;SDS011;22158;59.280;17.806;2022-08-21T13:45:59;7.18;;;1.80;;
35667;SDS011;22158;59.280;17.806;2022-08-21T13:48:27;3.08;;;1.40;;
35667;SDS011;22158;59.280;17.806;2022-08-21T13:50:56;4.47;;;1.50;;
35667;SDS011;22158;59.280;17.806;2022-08-21T13:53:28;2.22;;;1.27;;
35667;SDS011;22158;59.280;17.806;2022-08-21T13:55:54;3.45;;;1.20;;
35667;SDS011;22158;59.280;17.806;2022-08-21T13:58:24;6.72;;;1.65;;
35667;SDS011;22158;59.280;17.806;2022-08-21T14:00:50;3.25;;;1.55;;
35667;SDS011;22158;59.280;17.806;2022-08-21T14:05:57;2.13;;;1.10;;
35667;SDS011;22158;59.280;17.806;2022-08-21T14:08:26;3.20;;;1.20;;
35667;SDS011;22158;59.280;17.806;2022-08-21T14:10:58;4.82;;;1.48;;
35667;SDS011;22158;59.280;17.806;2022-08-21T14:16:03;3.22;;;1.30;;
35667;SDS011;22158;59.280;17.806;2022-08-21T14:18:44;1.75;;;1.08;;
35667;SDS011;22158;59.280;17.806;2022-08-21T14:21:23;2.65;;;1.50;;
35667;SDS011;22158;59.280;17.806;2022-08-21T14:24:04;3.72;;;1.55;;
35667;SDS011;22158;59.280;17.806;2022-08-21T14:26:36;2.63;;;1.30;;
35667;SDS011;22158;59.280;17.806;2022-08-21T14:29:14;3.72;;;1.33;;
35667;SDS011;22158;59.280;17.806;2022-08-21T14:31:41;2.17;;;1.30;;
35667;SDS011;22158;59.280;17.806;2022-08-21T14:34:09;2.20;;;1.25;;
35667;SDS011;22158;59.280;17.806;2022-08-21T14:36:37;2.47;;;1.10;;
35667;SDS011;22158;59.280;17.806;2022-08-21T14:39:02;2.88;;;1.27;;
35667;SDS011;22158;59.280;17.806;2022-08-21T14:41:28;3.33;;;1.10;;
35667;SDS011;22158;59.280;17.806;2022-08-21T14:43:54;4.40;;;1.42;;
35667;SDS011;22158;59.280;17.806;2022-08-21T14:46:22;3.25;;;1.05;;
35667;SDS011;22158;59.280;17.806;2022-08-21T14:48:49;2.63;;;1.30;;
35667;SDS011;22158;59.280;17.806;2022-08-21T14:51:15;3.10;;;1.27;;
35667;SDS011;22158;59.280;17.806;2022-08-21T14:53:42;3.65;;;1.20;;
35667;SDS011;22158;59.280;17.806;2022-08-21T14:56:08;4.38;;;1.48;;
35667;SDS011;22158;59.280;17.806;2022-08-21T14:58:36;3.00;;;1.13;;
35667;SDS011;22158;59.280;17.806;2022-08-21T15:01:05;2.10;;;1.15;;
35667;SDS011;22158;59.280;17.806;2022-08-21T15:03:31;4.35;;;1.05;;
35667;SDS011;22158;59.280;17.806;2022-08-21T15:05:58;2.55;;;1.42;;
35667;SDS011;22158;59.280;17.806;2022-08-21T15:08:23;3.50;;;1.02;;
35667;SDS011;22158;59.280;17.806;2022-08-21T15:10:50;3.00;;;1.42;;
35667;SDS011;22158;59.280;17.806;2022-08-21T15:13:17;2.35;;;1.25;;
35667;SDS011;22158;59.280;17.806;2022-08-21T15:15:45;2.72;;;0.90;;
35667;SDS011;22158;59.280;17.806;2022-08-21T15:18:12;2.17;;;0.95;;
35667;SDS011;22158;59.280;17.806;2022-08-21T15:20:38;5.60;;;1.10;;
35667;SDS011;22158;59.280;17.806;2022-08-21T15:23:05;1.92;;;1.10;;
35667;SDS011;22158;59.280;17.806;2022-08-21T15:25:32;4.07;;;1.13;;
35667;SDS011;22158;59.280;17.806;2022-08-21T15:27:59;2.13;;;1.02;;
35667;SDS011;22158;59.280;17.806;2022-08-21T15:30:25;2.95;;;1.10;;
35667;SDS011;22158;59.280;17.806;2022-08-21T15:32:52;2.50;;;1.10;;
35667;SDS011;22158;59.280;17.806;2022-08-21T15:35:17;1.35;;;0.98;;
35667;SDS011;22158;59.280;17.806;2022-08-21T15:37:43;5.10;;;1.00;;
35667;SDS011;22158;59.280;17.806;2022-08-21T15:40:09;3.30;;;1.00;;
35667;SDS011;22158;59.280;17.806;2022-08-21T15:42:35;2.67;;;0.85;;
35667;SDS011;22158;59.280;17.806;2022-08-21T15:45:04;2.83;;;1.08;;
35667;SDS011;22158;59.280;17.806;2022-08-21T15:47:32;3.53;;;1.10;;
35667;SDS011;22158;59.280;17.806;2022-08-21T15:50:00;2.47;;;0.73;;
35667;SDS011;22158;59.280;17.806;2022-08-21T15:52:26;3.38;;;1.10;;
35667;SDS011;22158;59.280;17.806;2022-08-21T15:54:52;8.18;;;1.13;;
35667;SDS011;22158;59.280;17.806;2022-08-21T15:57:20;4.25;;;1.30;;
35667;SDS011;22158;59.280;17.806;2022-08-21T15:59:48;4.50;;;1.00;;
35667;SDS011;22158;59.280;17.806;2022-08-21T16:02:23;3.53;;;1.40;;
35667;SDS011;22158;59.280;17.806;2022-08-21T16:04:51;4.10;;;1.13;;
35667;SDS011;22158;59.280;17.806;2022-08-21T16:07:17;5.03;;;1.45;;
35667;SDS011;22158;59.280;17.806;2022-08-21T16:09:43;3.47;;;1.13;;
35667;SDS011;22158;59.280;17.806;2022-08-21T16:12:11;4.57;;;1.08;;
35667;SDS011;22158;59.280;17.806;2022-08-21T16:14:44;3.50;;;1.17;;
35667;SDS011;22158;59.280;17.806;2022-08-21T16:17:10;3.42;;;1.10;;
35667;SDS011;22158;59.280;17.806;2022-08-21T16:19:36;2.28;;;1.20;;
35667;SDS011;22158;59.280;17.806;2022-08-21T16:22:02;3.03;;;1.35;;
35667;SDS011;22158;59.280;17.806;2022-08-21T16:24:28;4.60;;;1.65;;
35667;SDS011;22158;59.280;17.806;2022-08-21T16:26:54;6.10;;;1.50;;